createdAt,value
2018-10-02T00:01:40.208Z,10.00
2018-10-02T00:04:08.740Z,10.00
2018-10-02T00:06:37.270Z,9.90
2018-10-02T00:09:08.785Z,9.90
2018-10-02T00:11:42.657Z,9.90
2018-10-02T00:14:16.327Z,9.90
2018-10-02T00:16:44.772Z,9.80
2018-10-02T00:19:13.183Z,9.80
2018-10-02T00:21:41.604Z,9.80
2018-10-02T00:24:10.019Z,9.80
2018-10-02T00:26:38.501Z,9.80
2018-10-02T00:29:06.937Z,9.80
2018-10-02T00:31:35.580Z,9.80
2018-10-02T00:34:03.993Z,9.80
2018-10-02T00:36:32.516Z,9.80
2018-10-02T00:39:01.096Z,9.80
2018-10-02T00:41:29.608Z,9.80
2018-10-02T00:43:58.170Z,9.80
2018-10-02T00:46:26.692Z,9.80
2018-10-02T00:48:55.275Z,9.80
2018-10-02T00:51:23.816Z,9.80
2018-10-02T00:53:52.343Z,9.80
2018-10-02T00:56:20.753Z,9.90
2018-10-02T00:58:49.551Z,9.90
2018-10-02T01:01:18.013Z,9.90
2018-10-02T01:03:46.591Z,9.80
2018-10-02T01:06:15.089Z,9.80
2018-10-02T01:08:43.530Z,9.80
2018-10-02T01:11:12.074Z,9.80
2018-10-02T01:13:40.481Z,9.80
2018-10-02T01:16:08.998Z,9.80
2018-10-02T01:18:37.593Z,9.80
2018-10-02T01:21:06.194Z,9.80
2018-10-02T01:23:34.957Z,9.80
2018-10-02T01:26:03.568Z,9.70
2018-10-02T01:28:32.084Z,9.70
2018-10-02T01:31:00.668Z,9.70
2018-10-02T01:33:29.208Z,9.70
2018-10-02T01:35:57.695Z,9.70
2018-10-02T01:38:26.239Z,9.60
2018-10-02T01:40:54.675Z,9.70
2018-10-02T01:43:23.206Z,9.70
2018-10-02T01:45:51.677Z,9.70
2018-10-02T01:48:20.138Z,9.80
2018-10-02T01:50:49.114Z,9.80
2018-10-02T01:53:17.686Z,9.80
2018-10-02T01:55:46.196Z,9.90
2018-10-02T01:58:14.801Z,9.90
2018-10-02T02:00:43.332Z,9.90
2018-10-02T02:03:11.981Z,10.00
2018-10-02T02:05:40.553Z,10.00
2018-10-02T02:08:09.044Z,10.00
2018-10-02T02:10:37.530Z,10.00
2018-10-02T02:13:06.024Z,10.00
2018-10-02T02:15:34.914Z,10.00
2018-10-02T02:18:04.355Z,10.00
2018-10-02T02:20:32.833Z,10.10
2018-10-02T02:23:01.349Z,10.10
2018-10-02T02:25:29.887Z,10.00
2018-10-02T02:27:58.345Z,10.00
2018-10-02T02:30:26.904Z,10.00
2018-10-02T02:32:55.338Z,10.00
2018-10-02T02:35:23.874Z,9.90
2018-10-02T02:37:52.414Z,9.90
2018-10-02T02:40:20.881Z,9.90
2018-10-02T02:42:49.325Z,9.90
2018-10-02T02:45:17.759Z,9.90
2018-10-02T02:47:51.510Z,9.80
2018-10-02T02:50:26.100Z,9.80
2018-10-02T02:52:57.544Z,9.90
2018-10-02T02:55:26.018Z,9.90
2018-10-02T02:57:54.515Z,9.90
2018-10-02T03:00:23.121Z,9.90
2018-10-02T03:02:51.660Z,9.80
2018-10-02T03:05:20.142Z,9.90
2018-10-02T03:07:48.617Z,9.80
2018-10-02T03:10:17.171Z,9.80
2018-10-02T03:12:45.815Z,9.80
2018-10-02T03:15:14.388Z,9.80
2018-10-02T03:17:42.843Z,9.90
2018-10-02T03:20:11.464Z,9.90
2018-10-02T03:22:39.985Z,9.80
2018-10-02T03:25:08.671Z,9.80
2018-10-02T03:27:37.173Z,9.80
2018-10-02T03:30:05.837Z,9.80
2018-10-02T03:32:34.358Z,9.80
2018-10-02T03:35:03.001Z,9.90
2018-10-02T03:37:31.543Z,9.90
2018-10-02T03:40:00.157Z,9.90
2018-10-02T03:42:28.653Z,9.90
2018-10-02T03:44:57.177Z,10.00
2018-10-02T03:47:25.813Z,10.00
2018-10-02T03:49:54.545Z,9.90
2018-10-02T03:52:23.114Z,9.90
2018-10-02T03:54:51.662Z,9.90
2018-10-02T03:57:20.198Z,10.00
2018-10-02T03:59:48.726Z,10.00
2018-10-02T04:02:17.156Z,10.00
2018-10-02T04:04:45.680Z,10.00
2018-10-02T04:07:14.232Z,10.00
2018-10-02T04:09:43.057Z,10.10
2018-10-02T04:12:11.699Z,10.10
2018-10-02T04:14:40.117Z,10.10
2018-10-02T04:17:08.640Z,10.10
2018-10-02T04:19:37.142Z,10.20
2018-10-02T04:22:05.703Z,10.20
2018-10-02T04:24:34.296Z,10.20
2018-10-02T04:27:02.942Z,10.30
2018-10-02T04:29:31.563Z,10.20
2018-10-02T04:32:00.056Z,10.20
2018-10-02T04:34:28.596Z,10.20
2018-10-02T04:36:57.023Z,10.20
2018-10-02T04:39:25.540Z,10.20
2018-10-02T04:41:54.057Z,10.20
2018-10-02T04:44:22.579Z,10.10
2018-10-02T04:46:51.062Z,10.10
2018-10-02T04:49:19.520Z,10.10
2018-10-02T04:51:47.933Z,10.10
2018-10-02T04:54:16.630Z,10.10
2018-10-02T04:56:45.134Z,10.10
2018-10-02T04:59:13.632Z,10.00
2018-10-02T05:01:42.269Z,10.00
2018-10-02T05:04:10.836Z,10.00
2018-10-02T05:06:39.329Z,9.90
2018-10-02T05:09:09.273Z,9.90
2018-10-02T05:11:37.751Z,9.90
2018-10-02T05:14:06.474Z,9.90
2018-10-02T05:16:35.008Z,9.90
2018-10-02T05:19:03.504Z,9.90
2018-10-02T05:21:31.987Z,9.90
2018-10-02T05:24:00.441Z,9.90
2018-10-02T05:26:28.925Z,9.90
2018-10-02T05:28:57.703Z,9.90
2018-10-02T05:31:26.280Z,9.90
2018-10-02T05:33:54.857Z,9.90
2018-10-02T05:36:23.442Z,9.90
2018-10-02T05:38:52.753Z,9.80
2018-10-02T05:41:21.504Z,9.80
2018-10-02T05:43:50.230Z,9.80
2018-10-02T05:46:18.693Z,9.80
2018-10-02T05:48:48.313Z,9.80
2018-10-02T05:51:17.452Z,9.70
2018-10-02T05:53:47.288Z,9.70
2018-10-02T05:56:15.718Z,9.70
2018-10-02T05:58:44.189Z,9.70
2018-10-02T06:01:12.641Z,9.70
2018-10-02T06:03:41.258Z,9.80
2018-10-02T06:06:09.725Z,9.80
2018-10-02T06:08:38.208Z,9.80
2018-10-02T06:11:07.149Z,9.80
2018-10-02T06:13:35.674Z,9.80
2018-10-02T06:16:04.371Z,9.80
2018-10-02T06:18:32.864Z,9.80
2018-10-02T06:21:01.298Z,9.80
2018-10-02T06:23:29.770Z,9.80
2018-10-02T06:25:58.322Z,9.80
2018-10-02T06:28:26.806Z,9.90
2018-10-02T06:30:55.405Z,9.90
2018-10-02T06:33:24.083Z,9.90
2018-10-02T06:35:52.720Z,9.90
2018-10-02T06:38:21.298Z,9.80
2018-10-02T06:40:49.708Z,9.90
2018-10-02T06:43:18.197Z,9.90
2018-10-02T06:45:46.823Z,9.80
2018-10-02T06:48:15.427Z,9.90
2018-10-02T06:50:44.184Z,9.90
2018-10-02T06:53:12.636Z,9.80
2018-10-02T06:55:41.194Z,9.80
2018-10-02T06:58:09.670Z,9.80
2018-10-02T07:00:38.328Z,9.90
2018-10-02T07:03:06.974Z,9.90
2018-10-02T07:05:35.437Z,9.90
2018-10-02T07:08:03.860Z,9.90
2018-10-02T07:10:32.337Z,9.90
2018-10-02T07:13:00.901Z,9.90
2018-10-02T07:15:29.413Z,9.80
2018-10-02T07:20:56.837Z,9.80
2018-10-02T07:23:25.384Z,9.80
2018-10-02T07:25:53.930Z,9.80
2018-10-02T07:28:22.464Z,9.80
2018-10-02T07:30:50.936Z,9.80
2018-10-02T07:33:19.375Z,9.80
2018-10-02T07:35:47.852Z,9.80
2018-10-02T07:38:16.346Z,9.80
2018-10-02T07:40:44.796Z,9.90
2018-10-02T07:43:13.255Z,9.90
2018-10-02T07:45:42.598Z,9.90
2018-10-02T07:48:11.025Z,9.90
2018-10-02T07:50:39.475Z,9.90
2018-10-02T07:53:07.972Z,10.00
2018-10-02T07:55:37.775Z,9.90
2018-10-02T07:58:06.433Z,10.00
2018-10-02T08:00:35.182Z,9.90
2018-10-02T08:03:03.891Z,9.90
2018-10-02T08:05:32.479Z,9.80
2018-10-02T08:08:01.104Z,9.90
2018-10-02T08:10:29.624Z,9.90
2018-10-02T08:16:14.166Z,9.90
2018-10-02T08:18:43.001Z,9.90
2018-10-02T08:21:11.628Z,10.00
2018-10-02T08:23:40.432Z,10.00
2018-10-02T08:26:09.116Z,10.00
2018-10-02T08:28:39.140Z,10.00
2018-10-02T08:31:07.934Z,10.10
2018-10-02T08:33:36.618Z,10.10
2018-10-02T08:36:05.333Z,10.20
2018-10-02T08:38:34.932Z,10.20
2018-10-02T08:41:03.559Z,10.20
2018-10-02T08:43:32.090Z,10.20
2018-10-02T08:46:06.297Z,10.20
2018-10-02T08:48:43.501Z,10.20
2018-10-02T08:51:12.069Z,10.20
2018-10-02T08:53:40.524Z,10.20
2018-10-02T08:56:08.941Z,10.20
2018-10-02T08:58:37.531Z,10.20
2018-10-02T09:01:06.077Z,10.20
2018-10-02T09:03:34.666Z,10.20
2018-10-02T09:06:03.229Z,10.20
2018-10-02T09:08:31.762Z,10.20
2018-10-02T09:11:00.476Z,10.20
2018-10-02T09:13:29.055Z,10.20
2018-10-02T09:15:57.846Z,10.20
2018-10-02T09:18:26.306Z,10.20
2018-10-02T09:20:55.095Z,10.20
2018-10-02T09:23:23.464Z,10.20
2018-10-02T09:25:52.298Z,10.30
2018-10-02T09:28:20.817Z,10.30
2018-10-02T09:30:54.738Z,10.30
2018-10-02T09:33:28.587Z,10.30
2018-10-02T09:36:02.367Z,10.40
2018-10-02T09:38:36.467Z,10.40
2018-10-02T09:41:10.420Z,10.40
2018-10-02T09:43:47.318Z,10.40
2018-10-02T09:46:15.942Z,10.50
2018-10-02T09:48:44.543Z,10.50
2018-10-02T09:51:13.761Z,10.50
2018-10-02T09:53:42.644Z,10.50
2018-10-02T09:56:11.441Z,10.50
2018-10-02T09:58:40.127Z,10.50
2018-10-02T10:01:13.944Z,10.50
2018-10-02T10:03:42.563Z,10.60
2018-10-02T10:06:11.207Z,10.60
2018-10-02T10:08:39.767Z,10.70
2018-10-02T10:11:08.416Z,10.70
2018-10-02T10:13:37.078Z,10.70
2018-10-02T10:16:05.672Z,10.70
2018-10-02T10:18:34.199Z,10.70
2018-10-02T10:21:02.808Z,10.70
2018-10-02T10:23:31.386Z,10.80
2018-10-02T10:25:59.936Z,10.80
2018-10-02T10:28:28.630Z,10.80
2018-10-02T10:30:57.282Z,10.80
2018-10-02T10:33:26.155Z,10.80
2018-10-02T10:35:54.571Z,10.80
2018-10-02T10:38:23.092Z,10.90
2018-10-02T10:40:52.029Z,10.90
2018-10-02T10:43:21.218Z,10.90
2018-10-02T10:45:49.683Z,10.90
2018-10-02T10:48:18.200Z,11.00
2018-10-02T10:50:46.863Z,11.00
2018-10-02T10:53:15.353Z,11.00
2018-10-02T10:55:43.820Z,11.00
2018-10-02T10:58:12.216Z,11.00
2018-10-02T11:00:40.710Z,11.00
2018-10-02T11:03:09.372Z,11.00
2018-10-02T11:05:37.827Z,11.00
2018-10-02T11:08:06.358Z,11.10
2018-10-02T11:10:35.075Z,11.10
2018-10-02T11:13:03.590Z,11.10
2018-10-02T11:15:33.111Z,11.10
2018-10-02T11:18:01.906Z,11.10
2018-10-02T11:20:37.598Z,11.10
2018-10-02T11:23:06.228Z,11.10
2018-10-02T11:25:35.341Z,11.10
2018-10-02T11:28:03.897Z,11.20
2018-10-02T11:30:32.742Z,11.20
2018-10-02T11:33:02.278Z,11.20
2018-10-02T11:35:30.841Z,11.30
2018-10-02T11:37:59.474Z,11.30
2018-10-02T11:40:28.176Z,11.40
2018-10-02T11:42:56.759Z,11.40
2018-10-02T11:45:25.709Z,11.40
2018-10-02T11:47:54.539Z,11.40
2018-10-02T11:50:23.038Z,11.40
2018-10-02T11:52:53.301Z,11.50
2018-10-02T11:55:22.044Z,11.50
2018-10-02T11:57:50.696Z,11.60
2018-10-02T12:00:19.518Z,11.60
2018-10-02T12:02:48.178Z,11.60
2018-10-02T12:05:16.961Z,11.70
2018-10-02T12:07:45.868Z,11.70
2018-10-02T12:10:14.616Z,11.70
2018-10-02T12:12:43.443Z,11.70
2018-10-02T12:15:12.910Z,11.70
2018-10-02T12:17:42.287Z,11.80
2018-10-02T12:20:11.497Z,11.90
2018-10-02T12:22:40.056Z,12.00
2018-10-02T12:25:08.823Z,12.00
2018-10-02T12:27:38.624Z,12.00
2018-10-02T12:30:07.474Z,12.10
2018-10-02T12:32:36.101Z,12.10
2018-10-02T12:35:04.721Z,12.10
2018-10-02T12:37:33.383Z,12.10
2018-10-02T12:40:02.051Z,12.20
2018-10-02T12:42:30.584Z,12.20
2018-10-02T12:44:59.192Z,12.20
2018-10-02T12:47:27.656Z,12.30
2018-10-02T12:49:56.299Z,12.20
2018-10-02T12:52:24.959Z,12.30
2018-10-02T12:54:54.628Z,12.20
2018-10-02T12:57:23.470Z,12.20
2018-10-02T12:59:52.753Z,12.20
2018-10-02T13:02:21.852Z,12.30
2018-10-02T13:04:50.489Z,12.30
2018-10-02T13:07:31.496Z,12.30
2018-10-02T13:10:00.680Z,12.30
2018-10-02T13:12:30.599Z,12.40
2018-10-02T13:14:59.894Z,12.40
2018-10-02T13:17:28.903Z,12.40
2018-10-02T13:19:57.502Z,12.50
2018-10-02T13:22:26.181Z,12.50
2018-10-02T13:24:54.815Z,12.60
2018-10-02T13:27:23.325Z,12.60
2018-10-02T13:29:52.100Z,12.70
2018-10-02T13:32:34.003Z,12.70
2018-10-02T13:35:03.506Z,12.70
2018-10-02T13:37:33.039Z,12.70
2018-10-02T13:40:03.034Z,12.80
2018-10-02T13:42:31.733Z,12.80
2018-10-02T13:45:00.453Z,12.80
2018-10-02T13:47:29.003Z,12.80
2018-10-02T13:49:59.572Z,12.90
2018-10-02T13:52:28.068Z,12.90
2018-10-02T13:54:57.472Z,12.90
2018-10-02T13:57:26.945Z,12.90
2018-10-02T13:59:55.556Z,12.90
2018-10-02T14:02:24.202Z,13.00
2018-10-02T14:04:56.882Z,13.00
2018-10-02T14:07:25.854Z,13.00
2018-10-02T14:09:54.357Z,13.10
2018-10-02T14:12:22.907Z,13.10
2018-10-02T14:14:51.425Z,13.10
2018-10-02T14:17:20.047Z,13.10
2018-10-02T14:19:48.603Z,13.20
2018-10-02T14:22:17.207Z,13.20
2018-10-02T14:24:45.897Z,13.30
2018-10-02T14:27:14.735Z,13.30
2018-10-02T14:29:43.278Z,13.30
2018-10-02T14:32:11.881Z,13.40
2018-10-02T14:34:40.585Z,13.40
2018-10-02T14:37:09.156Z,13.40
2018-10-02T14:39:37.810Z,13.50
2018-10-02T14:42:06.621Z,13.60
2018-10-02T14:44:35.399Z,13.60
2018-10-02T14:47:03.986Z,13.60
2018-10-02T14:49:32.599Z,13.60
2018-10-02T14:52:01.180Z,13.60
2018-10-02T14:54:33.763Z,13.70
2018-10-02T14:57:02.428Z,13.70
2018-10-02T14:59:31.078Z,13.70
2018-10-02T15:01:59.492Z,13.70
2018-10-02T15:04:28.154Z,13.70
2018-10-02T15:06:56.740Z,13.70
2018-10-02T15:09:25.360Z,13.70
2018-10-02T15:11:53.971Z,13.70
2018-10-02T15:14:22.690Z,13.70
2018-10-02T15:16:51.433Z,13.70
2018-10-02T15:19:20.116Z,13.70
2018-10-02T15:21:48.858Z,13.80
2018-10-02T15:24:17.546Z,13.80
2018-10-02T15:26:46.261Z,13.80
2018-10-02T15:29:14.844Z,13.90
2018-10-02T15:31:43.505Z,13.90
2018-10-02T15:34:12.044Z,13.90
2018-10-02T15:36:40.756Z,13.90
2018-10-02T15:39:10.503Z,13.90
2018-10-02T15:41:39.561Z,13.90
2018-10-02T15:44:09.350Z,13.80
2018-10-02T15:46:37.931Z,13.80
2018-10-02T15:49:07.086Z,13.80
2018-10-02T15:51:36.220Z,13.80
2018-10-02T15:54:04.973Z,13.80
2018-10-02T15:56:33.930Z,13.80
2018-10-02T15:59:02.520Z,13.80
2018-10-02T16:01:32.400Z,13.70
2018-10-02T16:04:05.894Z,13.70
2018-10-02T16:06:35.709Z,13.70
2018-10-02T16:09:06.572Z,13.70
2018-10-02T16:11:35.118Z,13.60
2018-10-02T16:14:05.793Z,13.60
2018-10-02T16:16:35.026Z,13.60
2018-10-02T16:19:04.015Z,13.60
2018-10-02T16:21:33.525Z,13.50
2018-10-02T16:24:03.072Z,13.50
2018-10-02T16:26:32.665Z,13.50
2018-10-02T16:29:03.197Z,13.50
2018-10-02T16:31:31.755Z,13.50
2018-10-02T16:34:01.020Z,13.50
2018-10-02T16:36:29.728Z,13.50
2018-10-02T16:38:58.832Z,13.50
2018-10-02T16:41:27.272Z,13.40
2018-10-02T16:44:12.152Z,13.40
2018-10-02T16:46:41.482Z,13.40
2018-10-02T16:49:13.445Z,13.50
2018-10-02T16:51:42.832Z,13.40
2018-10-02T16:54:11.285Z,13.40
2018-10-02T16:56:39.739Z,13.40
2018-10-02T16:59:08.288Z,13.40
2018-10-02T17:01:36.798Z,13.40
2018-10-02T17:04:05.367Z,13.30
2018-10-02T17:06:33.901Z,13.30
2018-10-02T17:09:03.010Z,13.40
2018-10-02T17:11:33.724Z,13.40
2018-10-02T17:14:03.062Z,13.40
2018-10-02T17:16:31.570Z,13.40
2018-10-02T17:19:00.062Z,13.30
2018-10-02T17:21:28.513Z,13.30
2018-10-02T17:23:57.249Z,13.30
2018-10-02T17:26:25.825Z,13.30
2018-10-02T17:28:54.309Z,13.30
2018-10-02T17:31:22.893Z,13.30
2018-10-02T17:33:51.370Z,13.30
2018-10-02T17:36:19.871Z,13.30
2018-10-02T17:38:48.428Z,13.30
2018-10-02T17:41:17.035Z,13.30
2018-10-02T17:43:45.536Z,13.30
2018-10-02T17:46:14.293Z,13.30
2018-10-02T17:48:43.559Z,13.20
2018-10-02T17:51:12.191Z,13.20
2018-10-02T17:53:40.877Z,13.20
2018-10-02T17:56:09.505Z,13.20
2018-10-02T17:58:38.265Z,13.20
2018-10-02T18:01:06.974Z,13.10
2018-10-02T18:03:36.537Z,13.10
2018-10-02T18:06:05.320Z,13.10
2018-10-02T18:08:34.060Z,13.10
2018-10-02T18:11:02.740Z,13.10
2018-10-02T18:13:31.999Z,13.10
2018-10-02T18:16:00.570Z,13.10
2018-10-02T18:18:29.905Z,13.10
2018-10-02T18:20:58.596Z,13.00
2018-10-02T18:23:27.056Z,13.00
2018-10-02T18:25:55.565Z,13.00
2018-10-02T18:28:24.201Z,13.00
2018-10-02T18:30:52.804Z,13.00
2018-10-02T18:33:21.415Z,13.00
2018-10-02T18:35:50.002Z,12.90
2018-10-02T18:38:18.656Z,12.90
2018-10-02T18:40:47.269Z,12.90
2018-10-02T18:43:15.951Z,12.80
2018-10-02T18:45:44.400Z,12.90
2018-10-02T18:48:12.883Z,12.80
2018-10-02T18:50:41.410Z,12.80
2018-10-02T18:53:10.176Z,12.90
2018-10-02T18:55:38.974Z,12.80
2018-10-02T18:58:08.153Z,12.80
2018-10-02T19:00:36.658Z,12.80
2018-10-02T19:03:05.238Z,12.80
2018-10-02T19:05:34.245Z,12.80
2018-10-02T19:08:03.028Z,12.80
2018-10-02T19:10:31.638Z,12.70
2018-10-02T19:13:00.400Z,12.70
2018-10-02T19:15:33.123Z,12.70
2018-10-02T19:18:01.631Z,12.70
2018-10-02T19:20:35.601Z,12.70
2018-10-02T19:23:04.118Z,12.70
2018-10-02T19:25:38.036Z,12.70
2018-10-02T19:28:07.169Z,12.70
2018-10-02T19:30:41.047Z,12.60
2018-10-02T19:33:09.941Z,12.60
2018-10-02T19:35:38.692Z,12.60
2018-10-02T19:38:13.036Z,12.60
2018-10-02T19:40:41.720Z,12.60
2018-10-02T19:43:10.356Z,12.60
2018-10-02T19:45:44.096Z,12.60
2018-10-02T19:48:13.220Z,12.50
2018-10-02T19:50:42.005Z,12.50
2018-10-02T19:53:10.658Z,12.50
2018-10-02T19:55:39.371Z,12.50
2018-10-02T19:58:07.814Z,12.50
2018-10-02T20:00:36.413Z,12.50
2018-10-02T20:03:04.986Z,12.50
2018-10-02T20:05:33.638Z,12.50
2018-10-02T20:08:02.159Z,12.50
2018-10-02T20:10:30.786Z,12.50
2018-10-02T20:12:59.298Z,12.50
2018-10-02T20:15:27.753Z,12.50
2018-10-02T20:17:58.140Z,12.50
2018-10-02T20:20:27.042Z,12.40
2018-10-02T20:22:56.041Z,12.40
2018-10-02T20:25:24.849Z,12.30
2018-10-02T20:27:53.642Z,12.30
2018-10-02T20:30:22.786Z,12.40
2018-10-02T20:32:51.560Z,12.40
2018-10-02T20:35:20.341Z,12.30
2018-10-02T20:37:48.937Z,12.40
2018-10-02T20:40:17.625Z,12.40
2018-10-02T20:42:46.646Z,12.40
2018-10-02T20:45:15.421Z,12.40
2018-10-02T20:47:45.228Z,12.40
2018-10-02T20:50:13.877Z,12.40
2018-10-02T20:52:42.781Z,12.40
2018-10-02T20:55:11.317Z,12.40
2018-10-02T20:57:39.874Z,12.40
2018-10-02T21:00:08.318Z,12.40
2018-10-02T21:02:36.856Z,12.40
2018-10-02T21:05:05.297Z,12.50
2018-10-02T21:07:33.820Z,12.50
2018-10-02T21:10:02.379Z,12.50
2018-10-02T21:12:30.867Z,12.50
2018-10-02T21:14:59.415Z,12.40
2018-10-02T21:17:27.940Z,12.40
2018-10-02T21:19:56.518Z,12.40
2018-10-02T21:22:25.037Z,12.40
2018-10-02T21:24:53.721Z,12.30
2018-10-02T21:27:22.225Z,12.30
2018-10-02T21:29:53.151Z,12.30
2018-10-02T21:32:21.869Z,12.30
2018-10-02T21:34:50.497Z,12.20
2018-10-02T21:37:19.046Z,12.20
2018-10-02T21:39:47.870Z,12.20
2018-10-02T21:42:16.438Z,12.20
2018-10-02T21:44:44.936Z,12.20
2018-10-02T21:47:13.501Z,12.20
2018-10-02T21:49:41.918Z,12.20
2018-10-02T21:52:10.628Z,12.20
2018-10-02T21:54:39.133Z,12.10
2018-10-02T21:57:07.683Z,12.10
2018-10-02T21:59:36.210Z,12.10
2018-10-02T22:02:04.696Z,12.10
2018-10-02T22:04:33.121Z,12.10
2018-10-02T22:07:01.634Z,12.10
2018-10-02T22:09:30.271Z,12.10
2018-10-02T22:11:58.770Z,12.10
2018-10-02T22:14:27.408Z,12.10
2018-10-02T22:16:56.085Z,12.10
2018-10-02T22:19:24.519Z,12.10
2018-10-02T22:21:53.441Z,12.10
2018-10-02T22:24:23.085Z,12.10
2018-10-02T22:26:51.669Z,12.10
2018-10-02T22:29:20.105Z,12.10
2018-10-02T22:31:48.617Z,12.10
2018-10-02T22:34:17.095Z,12.10
2018-10-02T22:36:45.551Z,12.00
2018-10-02T22:39:14.107Z,12.10
2018-10-02T22:41:42.656Z,12.10
2018-10-02T22:44:11.906Z,12.00
2018-10-02T22:46:41.338Z,12.00
2018-10-02T22:49:09.784Z,11.90
2018-10-02T22:51:38.303Z,11.90
2018-10-02T22:54:06.808Z,11.90
2018-10-02T22:56:35.285Z,11.90
2018-10-02T22:59:03.849Z,11.90
2018-10-02T23:01:32.340Z,11.90
2018-10-02T23:04:00.859Z,11.80
2018-10-02T23:06:29.419Z,11.80
2018-10-02T23:08:57.872Z,11.80
2018-10-02T23:11:26.549Z,11.90
2018-10-02T23:13:54.969Z,11.90
2018-10-02T23:16:23.413Z,11.90
2018-10-02T23:18:51.929Z,11.90
2018-10-02T23:21:20.869Z,11.90
2018-10-02T23:23:49.372Z,11.90
2018-10-02T23:26:17.864Z,11.90
2018-10-02T23:28:46.264Z,11.90
2018-10-02T23:31:14.776Z,11.90
2018-10-02T23:33:43.169Z,11.80
2018-10-02T23:36:11.617Z,11.80
2018-10-02T23:38:40.131Z,11.80
2018-10-02T23:41:08.584Z,11.70
2018-10-02T23:43:37.237Z,11.70
2018-10-02T23:46:05.870Z,11.60
2018-10-02T23:48:34.285Z,11.70
2018-10-02T23:51:02.707Z,11.70
2018-10-02T23:53:31.169Z,11.70
2018-10-02T23:55:59.609Z,11.70
2018-10-02T23:58:28.002Z,11.60
